Ridgeway, Missouri
Current Conditions -  °F | °C
As of 6:53 AM on Friday 24 Oct 2014 (Local Time) from KLWD Reporting Station
Moderate Fog Moderate Fog  
Wind Chill: 57°   Ceiling: 200
Heat Index: 57°   Visibility: 0.25mi
Dew Point: 56°   Wind: 9mph
Humidity: 96%   Direction: 210°SSW
Pressure: 30.02"   Gusts: NA
Location:  40.38°N, 93.94°W
Report Text: KLWD 241153Z AUTO 21008KT 1/4SM FG VV002 14/13 A3002 RMK AO2 SLP165 70001 T01390133 10144 20139 58004
Loading
Personal Weather Stations






























Interactive Weather Map
Tropical Storm Tracking
New forecast layout! Learn more

10-Day Weather Forecast

Advertisements
Track Severe Weather on mobile